createdAt,value
2022-10-28T00:09:32.850Z,85
2022-10-28T00:27:12.608Z,82.1
2022-10-28T00:42:23.971Z,82.5
2022-10-28T00:57:33.188Z,82.4
2022-10-28T01:12:42.687Z,82.3
2022-10-28T01:27:52.423Z,81.3
2022-10-28T01:43:02.240Z,80.3
2022-10-28T01:58:14.808Z,79.9
2022-10-28T02:13:25.490Z,78.4
2022-10-28T02:28:36.606Z,80.2
2022-10-28T02:43:45.756Z,81.6
2022-10-28T02:58:55.134Z,82.1
2022-10-28T03:14:05.548Z,81.7
2022-10-28T03:29:14.620Z,82.3
2022-10-28T03:44:24.398Z,82.1
2022-10-28T03:59:39.425Z,83.4
2022-10-28T04:14:49.024Z,84.2
2022-10-28T04:29:58.393Z,84.3
2022-10-28T04:45:07.855Z,84.4
2022-10-28T05:00:22.456Z,83.9
2022-10-28T05:15:32.574Z,84.3
2022-10-28T05:30:42.068Z,84.5
2022-10-28T05:45:51.570Z,84.6
2022-10-28T06:01:00.955Z,84.8
2022-10-28T06:16:08.949Z,84.8
2022-10-28T06:31:19.103Z,84.7
2022-10-28T06:46:28.661Z,84.5
2022-10-28T07:01:43.513Z,83.6
2022-10-28T07:16:52.832Z,83.5
2022-10-28T07:32:04.752Z,83.2
2022-10-28T07:47:14.623Z,83.1
2022-10-28T08:02:24.580Z,82.7
2022-10-28T08:17:37.330Z,82.2
2022-10-28T08:32:47.357Z,81.7
2022-10-28T08:47:59.321Z,81.6
2022-10-28T09:03:09.250Z,81.3
2022-10-28T09:18:22.060Z,80.5
2022-10-28T09:33:36.844Z,80.2
2022-10-28T09:48:46.701Z,79.8
2022-10-28T10:03:59.342Z,78.9
2022-10-28T10:19:09.404Z,77.9
2022-10-28T10:34:19.664Z,77.7
2022-10-28T10:49:29.656Z,77.1
2022-10-28T11:04:39.718Z,76.8
2022-10-28T11:19:49.061Z,76.2
2022-10-28T11:35:01.704Z,75.7
2022-10-28T11:50:14.667Z,73.6
2022-10-28T12:05:23.680Z,73.2
2022-10-28T12:20:32.503Z,72.7
2022-10-28T12:35:41.670Z,72.5
2022-10-28T12:50:51.771Z,72.1
2022-10-28T13:06:01.498Z,71.2
2022-10-28T13:21:10.540Z,71.4
2022-10-28T13:36:19.857Z,73.1
2022-10-28T13:51:29.230Z,74
2022-10-28T14:06:38.156Z,74.5
2022-10-28T14:21:49.099Z,74.8
2022-10-28T14:36:58.014Z,75.2
2022-10-28T14:52:07.362Z,75.4
2022-10-28T15:07:16.952Z,75.6
2022-10-28T15:22:26.636Z,75.7
2022-10-28T15:37:40.881Z,75.7
2022-10-28T15:54:55.438Z,70.9
2022-10-28T16:10:05.751Z,74.3
2022-10-28T16:25:14.958Z,74.9
2022-10-28T16:40:52.993Z,75.4
2022-10-28T16:56:03.226Z,75.7
2022-10-28T17:11:12.613Z,75.4
2022-10-28T17:26:22.609Z,74.9
2022-10-28T17:41:32.638Z,75.9
2022-10-28T17:56:42.647Z,76.4
2022-10-28T18:11:52.478Z,76.4
2022-10-28T18:27:02.577Z,76.2
2022-10-28T18:42:20.896Z,75.9
2022-10-28T18:57:31.863Z,75.4
2022-10-28T19:12:53.381Z,75.4
2022-10-28T19:28:03.347Z,75.1
2022-10-28T19:43:12.815Z,75.4
2022-10-28T19:58:22.488Z,75.4
2022-10-28T20:13:32.048Z,75.7
2022-10-28T20:28:41.416Z,75.9
2022-10-28T20:43:50.633Z,76.2
2022-10-28T20:59:01.717Z,76.4
2022-10-28T21:14:11.602Z,76.6
2022-10-28T21:29:20.994Z,76.8
2022-10-28T21:44:30.523Z,76.4
2022-10-28T21:59:39.835Z,76.3
2022-10-28T22:14:49.594Z,75.7
2022-10-28T22:29:59.185Z,76.1
2022-10-28T22:45:08.682Z,77.1
2022-10-28T23:15:29.026Z,75.5
2022-10-28T23:30:38.563Z,75.8
2022-10-28T23:45:48.115Z,76.7
